Time;durP1;ratioP1;P1;durP2;ratioP2;P2;SDS_P1;SDS_P2;PMS_P1;PMS_P2;Temp;Humidity;BMP_temperature;BMP_pressure;BME280_temperature;BME280_humidity;BME280_pressure;Samples;Min_cycle;Max_cycle;Signal;HPM_P1;HPM_P2
2023/06/25 00:00:08;;;;;;;30.23;8.87;;;;;;;24.68;57.13;100024.31;7312985;19;129310;-44
2023/06/25 00:02:33;;;;;;;27.30;7.93;;;;;;;24.68;56.94;100029.56;7314523;19;130882;-42
2023/06/25 00:04:58;;;;;;;31.03;8.30;;;;;;;24.68;56.81;100024.31;7315052;19;129749;-37
2023/06/25 00:07:24;;;;;;;16.20;7.40;;;;;;;24.69;57.13;100023.34;7314949;19;129030;-41
2023/06/25 00:09:55;;;;;;;53.92;9.05;;;;;;;24.69;57.37;100020.72;7311614;19;129019;-43
2023/06/25 00:12:22;;;;;;;41.85;7.85;;;;;;;24.67;57.15;100017.38;7314009;19;129335;-43
2023/06/25 00:14:47;;;;;;;40.58;8.18;;;;;;;24.64;56.81;100012.41;7314250;19;129612;-41
2023/06/25 00:17:17;;;;;;;29.58;7.70;;;;;;;24.67;56.74;100017.38;7313847;19;128971;-42
2023/06/25 00:19:45;;;;;;;34.35;7.55;;;;;;;24.66;56.96;100015.72;7312678;19;129500;-42
2023/06/25 00:22:11;;;;;;;41.47;7.72;;;;;;;24.63;57.11;100016.00;7313979;19;129587;-40
2023/06/25 00:24:39;;;;;;;36.17;7.57;;;;;;;24.65;57.26;100014.06;7311257;19;128936;-38
2023/06/25 00:27:06;;;;;;;15.82;6.63;;;;;;;24.66;56.78;100015.72;7314803;19;129081;-36
2023/06/25 00:29:32;;;;;;;38.42;7.55;;;;;;;24.65;57.32;100012.25;7312033;19;129240;-39
2023/06/25 00:31:58;;;;;;;53.55;9.07;;;;;;;24.63;57.16;100006.31;7313385;19;129122;-39
2023/06/25 00:34:23;;;;;;;32.07;7.53;;;;;;;24.64;57.25;100009.78;7314292;19;129304;-39
2023/06/25 00:36:51;;;;;;;29.50;7.47;;;;;;;24.54;57.15;99990.63;7314823;19;129520;-40
2023/06/25 00:39:20;;;;;;;38.83;7.75;;;;;;;24.63;56.83;100010.75;7311881;19;129028;-42
2023/06/25 00:41:47;;;;;;;38.40;7.25;;;;;;;24.63;56.98;100010.75;7313152;19;130278;-43
2023/06/25 00:44:13;;;;;;;28.52;6.32;;;;;;;24.63;57.38;100016.00;7313820;19;130351;-41
2023/06/25 00:46:39;;;;;;;31.90;6.90;;;;;;;24.64;56.87;100012.41;7313356;19;128756;-37
2023/06/25 00:49:07;;;;;;;26.80;6.10;;;;;;;24.63;56.95;100013.38;7311617;19;129062;-41
2023/06/25 00:51:36;;;;;;;45.33;7.22;;;;;;;24.64;56.60;100012.41;7310804;19;129451;-42
2023/06/25 00:54:05;;;;;;;27.25;6.93;;;;;;;24.63;56.79;100010.75;7312920;19;129338;-41
2023/06/25 00:56:34;;;;;;;25.38;6.68;;;;;;;24.62;56.98;100007.31;7313960;19;128985;-42
2023/06/25 00:59:01;;;;;;;32.10;7.10;;;;;;;24.61;56.73;100010.09;7311411;19;129246;-37
2023/06/25 01:01:41;;;;;;;39.90;7.22;;;;;;;24.64;56.73;100013.25;7310106;19;129010;-41
2023/06/25 01:04:19;;;;;;;46.75;7.55;;;;;;;24.63;56.77;100010.75;7313081;19;129443;-43
2023/06/25 01:06:48;;;;;;;41.78;7.53;;;;;;;24.60;56.89;100016.31;7313291;19;128865;-41
2023/06/25 01:09:15;;;;;;;28.30;6.72;;;;;;;24.61;56.80;100010.09;7311358;19;129650;-41
2023/06/25 01:11:53;;;;;;;22.45;6.25;;;;;;;24.62;56.79;100015.19;7309645;19;129551;-39
2023/06/25 01:14:18;;;;;;;26.75;6.32;;;;;;;24.60;56.48;100011.03;7312194;19;129222;-38
2023/06/25 01:16:44;;;;;;;40.93;7.13;;;;;;;24.59;56.37;100009.41;7311955;19;128953;-43
2023/06/25 01:19:10;;;;;;;37.25;6.82;;;;;;;24.61;56.75;100012.72;7312097;19;129265;-43
2023/06/25 01:21:39;;;;;;;28.00;6.57;;;;;;;24.60;56.46;100008.41;7310195;19;130577;-44
2023/06/25 01:24:05;;;;;;;34.05;6.75;;;;;;;24.58;56.74;100018.28;7311980;19;130470;-41
2023/06/25 01:26:30;;;;;;;46.30;7.23;;;;;;;24.58;56.89;100007.75;7312112;19;128816;-38
2023/06/25 01:28:55;;;;;;;35.93;6.80;;;;;;;24.58;56.46;100008.56;7310875;19;128919;-41
2023/06/25 01:31:21;;;;;;;24.27;6.33;;;;;;;24.56;56.31;100000.00;7309832;19;129054;-42
2023/06/25 01:33:47;;;;;;;35.93;6.37;;;;;;;24.56;56.42;100000.00;7311839;19;131160;-45
2023/06/25 01:36:12;;;;;;;46.30;7.88;;;;;;;24.56;57.03;99996.56;7312089;19;129010;-41
2023/06/25 01:38:37;;;;;;;21.47;6.10;;;;;;;24.59;56.98;100009.41;7312003;19;129363;-43
2023/06/25 01:41:03;;;;;;;64.07;8.30;;;;;;;24.56;56.67;100002.63;7308983;19;130065;-38
2023/06/25 01:43:30;;;;;;;26.30;5.50;;;;;;;24.55;56.54;100003.63;7311632;19;130414;-42
2023/06/25 01:45:56;;;;;;;44.17;6.90;;;;;;;24.55;57.08;99997.53;7311422;19;128996;-42
2023/06/25 01:48:21;;;;;;;29.30;6.17;;;;;;;24.55;56.90;99993.09;7311885;19;129089;-39
2023/06/25 01:50:47;;;;;;;33.35;6.07;;;;;;;24.54;56.79;99988.84;7308365;19;129417;-42
2023/06/25 01:53:13;;;;;;;30.42;6.30;;;;;;;24.48;56.59;99970.19;7311702;19;130487;-45
2023/06/25 01:55:38;;;;;;;47.73;7.43;;;;;;;24.52;56.66;99974.16;7311670;19;128939;-38
2023/06/25 01:58:03;;;;;;;42.60;7.43;;;;;;;24.54;56.72;99980.94;7311565;19;129244;-41
2023/06/25 02:00:29;;;;;;;38.33;7.20;;;;;;;24.55;56.41;99976.50;7309441;19;129058;-40
2023/06/25 02:02:54;;;;;;;18.47;5.53;;;;;;;24.55;57.04;99976.50;7311212;19;129144;-42
2023/06/25 02:05:19;;;;;;;43.43;6.67;;;;;;;24.54;56.32;99980.09;7311514;19;129043;-38
2023/06/25 02:07:45;;;;;;;30.70;6.72;;;;;;;24.53;56.70;99976.66;7311151;19;128993;-42
2023/06/25 02:10:12;;;;;;;27.60;6.20;;;;;;;24.53;57.08;99975.84;7309055;19;128985;-43
2023/06/25 02:12:37;;;;;;;40.67;6.80;;;;;;;24.53;56.46;99978.47;7315761;19;129567;-43
2023/06/25 02:15:03;;;;;;;21.57;5.93;;;;;;;24.52;56.56;99982.06;7318907;19;129759;-43
2023/06/25 02:17:28;;;;;;;38.00;6.73;;;;;;;24.51;56.47;99969.91;7317317;19;129449;-36
2023/06/25 02:19:53;;;;;;;25.67;5.87;;;;;;;24.52;56.72;99976.78;7315585;19;129150;-41
2023/06/25 02:22:19;;;;;;;52.40;7.55;;;;;;;24.49;57.04;99968.22;7316871;19;129154;-42
2023/06/25 02:24:44;;;;;;;32.03;6.47;;;;;;;24.52;56.56;99969.75;7317817;19;128899;-37
2023/06/25 02:27:09;;;;;;;30.47;7.13;;;;;;;24.41;56.35;99946.31;7317270;19;128808;-39
2023/06/25 02:29:35;;;;;;;12.15;5.03;;;;;;;24.50;56.32;99966.44;7314661;19;128903;-38
2023/06/25 02:32:00;;;;;;;43.83;6.93;;;;;;;24.51;56.36;99960.19;7316549;19;129225;-44
2023/06/25 02:34:25;;;;;;;27.13;5.90;;;;;;;24.48;56.76;99950.81;7317579;19;129775;-39
2023/06/25 02:36:51;;;;;;;29.23;6.23;;;;;;;24.51;56.40;99959.38;7317499;19;129406;-38
2023/06/25 02:39:16;;;;;;;32.27;6.80;;;;;;;24.48;56.68;99951.81;7315628;19;129244;-43
2023/06/25 02:41:42;;;;;;;53.07;7.00;;;;;;;24.50;56.40;99958.53;7313996;19;129599;-38
2023/06/25 02:44:07;;;;;;;24.42;5.55;;;;;;;24.51;56.57;99956.75;7317235;19;129346;-42
2023/06/25 02:46:33;;;;;;;19.47;5.93;;;;;;;24.41;56.74;99944.50;7316314;19;128859;-43
2023/06/25 02:48:58;;;;;;;34.47;6.47;;;;;;;24.48;56.62;99955.22;7315500;19;130884;-39
2023/06/25 02:51:23;;;;;;;45.33;7.40;;;;;;;24.48;56.69;99956.06;7314762;19;129306;-41
2023/06/25 02:53:49;;;;;;;32.00;6.27;;;;;;;24.48;57.10;99956.06;7316427;19;129152;-42
2023/06/25 02:56:14;;;;;;;30.17;6.27;;;;;;;24.38;56.40;99947.44;7315837;19;128884;-39
2023/06/25 02:58:39;;;;;;;35.28;6.65;;;;;;;24.48;56.75;99956.06;7315718;19;129211;-39
2023/06/25 03:01:05;;;;;;;26.90;6.30;;;;;;;24.48;56.62;99957.88;7313501;19;129127;-42
2023/06/25 03:03:30;;;;;;;28.17;6.23;;;;;;;24.48;56.86;99963.13;7315535;19;129194;-44
2023/06/25 03:05:55;;;;;;;26.93;6.07;;;;;;;24.48;56.55;99959.69;7315009;19;129449;-42
2023/06/25 03:08:21;;;;;;;47.03;7.33;;;;;;;24.43;57.00;99950.44;7315418;19;129384;-42
2023/06/25 03:10:46;;;;;;;13.33;5.23;;;;;;;24.46;56.67;99958.00;7313397;19;129314;-43
2023/06/25 03:13:12;;;;;;;27.80;6.10;;;;;;;24.46;56.23;99957.22;7315543;19;128804;-38
2023/06/25 03:15:37;;;;;;;21.37;6.40;;;;;;;24.45;56.56;99956.38;7315674;19;130168;-43
2023/06/25 03:18:03;;;;;;;58.63;8.23;;;;;;;24.45;56.21;99953.75;7315505;19;129128;-38
2023/06/25 03:20:28;;;;;;;25.10;5.77;;;;;;;24.45;56.63;99955.53;7314479;19;129381;-41
2023/06/25 03:22:53;;;;;;;15.38;5.50;;;;;;;24.44;56.88;99949.44;7312448;19;129255;-40
2023/06/25 03:25:19;;;;;;;37.60;6.87;;;;;;;24.44;57.00;99954.69;7315080;19;128802;-41
2023/06/25 03:27:44;;;;;;;47.93;6.77;;;;;;;24.45;56.15;99955.53;7315500;19;129974;-42
2023/06/25 03:30:09;;;;;;;30.40;6.10;;;;;;;24.43;56.26;99952.22;7312982;19;129676;-42
2023/06/25 03:32:35;;;;;;;26.27;6.10;;;;;;;24.46;56.07;99957.22;7315560;19;128782;-38
2023/06/25 03:35:00;;;;;;;31.85;5.85;;;;;;;24.43;56.81;99947.81;7316107;19;129187;-43
2023/06/25 03:37:26;;;;;;;57.77;8.23;;;;;;;24.39;56.83;99949.06;7314406;19;129159;-44
2023/06/25 03:39:51;;;;;;;33.55;6.22;;;;;;;24.40;56.99;99953.38;7313409;19;129715;-38
2023/06/25 03:42:16;;;;;;;28.53;5.43;;;;;;;24.42;56.22;99951.41;7314371;19;128977;-42
2023/06/25 03:44:47;;;;;;;37.67;6.80;;;;;;;24.42;56.43;99951.41;7314744;19;128961;-39
2023/06/25 03:47:13;;;;;;;35.25;6.38;;;;;;;24.31;56.94;99938.47;7315156;19;129617;-42
2023/06/25 03:49:38;;;;;;;27.50;6.13;;;;;;;24.42;56.47;99945.31;7313943;19;130421;-40
2023/06/25 03:52:03;;;;;;;28.80;5.87;;;;;;;24.42;56.28;99945.31;7314346;19;128866;-42
2023/06/25 03:54:29;;;;;;;43.67;7.10;;;;;;;24.41;56.57;99948.94;7315145;19;129380;-37
2023/06/25 03:56:54;;;;;;;37.58;6.45;;;;;;;24.40;56.10;99942.84;7314777;19;129574;-38
2023/06/25 03:59:19;;;;;;;27.83;6.20;;;;;;;24.40;56.33;99944.66;7312864;19;129626;-43
2023/06/25 04:01:45;;;;;;;29.00;6.00;;;;;;;24.39;56.58;99941.19;7313506;19;129532;-42
2023/06/25 04:04:10;;;;;;;39.67;6.27;;;;;;;24.41;56.45;99938.44;7313871;19;129364;-40
2023/06/25 04:06:35;;;;;;;42.13;6.90;;;;;;;24.37;56.73;99937.06;7311272;19;129145;-39
2023/06/25 04:09:01;;;;;;;19.07;5.33;;;;;;;24.38;56.29;99934.28;7312845;19;129379;-41
2023/06/25 04:11:26;;;;;;;28.27;5.70;;;;;;;24.41;56.40;99927.91;7310211;19;129134;-43
2023/06/25 04:13:51;;;;;;;38.30;6.53;;;;;;;24.39;56.76;99924.59;7313521;19;129488;-41
2023/06/25 04:16:17;;;;;;;28.77;5.83;;;;;;;24.38;56.22;99929.03;7314542;19;129126;-38
2023/06/25 04:18:42;;;;;;;8.83;5.00;;;;;;;24.38;56.71;99929.03;7312436;19;130052;-44
2023/06/25 04:21:07;;;;;;;40.33;7.17;;;;;;;24.39;56.08;99930.66;7311042;19;129158;-41
2023/06/25 04:23:34;;;;;;;49.43;6.90;;;;;;;24.38;56.71;99939.53;7312522;19;128927;-44
2023/06/25 04:25:59;;;;;;;34.85;5.80;;;;;;;24.36;56.58;99925.72;7314757;19;129376;-39
2023/06/25 04:28:25;;;;;;;54.80;7.70;;;;;;;24.37;56.69;99930.00;7309494;19;131376;-42
2023/06/25 04:30:50;;;;;;;32.67;6.10;;;;;;;24.36;56.20;99928.34;7311237;19;130955;-41
2023/06/25 04:33:15;;;;;;;61.90;8.10;;;;;;;24.37;56.48;99924.75;7312201;19;128906;-39
2023/06/25 04:35:41;;;;;;;45.73;6.60;;;;;;;24.35;56.67;99924.06;7312166;19;129060;-40
2023/06/25 04:38:06;;;;;;;42.25;6.35;;;;;;;24.33;56.75;99920.75;7312064;19;130110;-42
2023/06/25 04:40:31;;;;;;;42.30;6.67;;;;;;;24.36;56.27;99925.72;7311130;19;129290;-42
2023/06/25 04:42:57;;;;;;;25.87;5.60;;;;;;;24.36;56.84;99923.09;7313177;19;129167;-40
2023/06/25 04:45:22;;;;;;;33.77;5.40;;;;;;;24.38;56.67;99923.78;7313410;19;129658;-40
2023/06/25 04:47:47;;;;;;;31.43;6.10;;;;;;;24.36;56.49;99924.91;7312569;19;130963;-37
2023/06/25 04:50:13;;;;;;;40.33;5.95;;;;;;;24.33;56.69;99917.31;7310886;19;128998;-40
2023/06/25 04:52:39;;;;;;;32.13;6.20;;;;;;;24.34;56.15;99916.34;7312842;19;128810;-43
2023/06/25 04:55:05;;;;;;;26.50;5.73;;;;;;;24.35;56.53;99918.81;7312639;19;129552;-40
2023/06/25 04:57:31;;;;;;;29.37;5.90;;;;;;;24.34;56.79;99926.84;7312915;19;129553;-39
2023/06/25 04:59:56;;;;;;;47.15;6.80;;;;;;;24.34;56.56;99917.19;7311787;19;128810;-42
2023/06/25 05:02:21;;;;;;;27.70;5.72;;;;;;;24.33;56.20;99914.66;7313554;19;129288;-41
2023/06/25 05:04:47;;;;;;;33.87;6.50;;;;;;;24.34;56.22;99917.19;7312658;19;129130;-39
2023/06/25 05:07:12;;;;;;;35.27;5.87;;;;;;;24.35;56.69;99926.69;7312808;19;130177;-42
2023/06/25 05:09:37;;;;;;;37.60;6.13;;;;;;;24.26;56.47;99905.75;7311195;19;128966;-40
2023/06/25 05:12:03;;;;;;;22.77;5.33;;;;;;;24.34;56.29;99922.44;7313186;19;129441;-44
2023/06/25 05:14:28;;;;;;;28.60;6.20;;;;;;;24.34;56.27;99922.44;7312721;19;130175;-42
2023/06/25 05:16:54;;;;;;;11.47;4.70;;;;;;;24.31;56.82;99917.44;7312784;19;129068;-44
2023/06/25 05:19:19;;;;;;;41.00;6.00;;;;;;;24.24;56.02;99911.16;7311956;19;129120;-43
2023/06/25 05:21:44;;;;;;;29.40;5.53;;;;;;;24.33;56.55;99923.38;7312854;19;129234;-41
2023/06/25 05:24:10;;;;;;;23.45;5.05;;;;;;;24.33;56.56;99926.03;7312554;19;129556;-42
2023/06/25 05:26:35;;;;;;;26.13;5.07;;;;;;;24.32;56.00;99920.91;7312411;19;130444;-42
2023/06/25 05:29:01;;;;;;;62.53;7.83;;;;;;;24.33;56.10;99926.03;7311906;19;128816;-39
2023/06/25 05:31:28;;;;;;;26.40;5.25;;;;;;;24.31;56.56;99920.09;7309934;19;129369;-41
2023/06/25 05:33:53;;;;;;;38.35;6.05;;;;;;;24.30;56.60;99920.22;7311535;19;129571;-40
2023/06/25 05:36:19;;;;;;;46.53;6.20;;;;;;;24.32;56.47;99924.38;7312099;19;129904;-41
2023/06/25 05:38:44;;;;;;;26.67;5.23;;;;;;;24.32;56.24;99921.75;7311915;19;128896;-43
2023/06/25 05:41:10;;;;;;;133.93;12.37;;;;;;;24.32;56.84;99919.13;7293320;19;129642;-41
2023/06/25 05:43:35;;;;;;;128.35;11.77;;;;;;;24.32;56.84;99921.75;7286415;19;130074;-43
2023/06/25 05:46:01;;;;;;;158.23;13.60;;;;;;;24.32;56.29;99924.38;7287283;19;130296;-40
2023/06/25 05:48:26;;;;;;;125.57;11.90;;;;;;;24.33;56.25;99928.66;7293687;19;130062;-43
2023/06/25 05:50:52;;;;;;;120.10;11.60;;;;;;;24.32;56.78;99928.78;7292463;19;130115;-41
2023/06/25 05:53:18;;;;;;;120.05;11.23;;;;;;;24.32;56.10;99929.63;7291680;19;129784;-43
2023/06/25 05:55:44;;;;;;;;;;;;;;;24.39;56.34;99924.59;7294606;19;129797;-40
2023/06/25 05:58:09;;;;;;;33.28;5.75;;;;;;;24.33;56.09;99925.19;7301623;19;130642;-40
2023/06/25 06:00:35;;;;;;;125.77;11.87;;;;;;;24.30;56.46;99923.69;7293197;19;130103;-37
2023/06/25 06:03:00;;;;;;;150.88;13.25;;;;;;;24.33;56.82;99926.03;7291378;19;130781;-41
2023/06/25 06:05:25;;;;;;;133.70;11.93;;;;;;;24.32;56.26;99934.88;7293298;19;129999;-40
2023/06/25 06:07:51;;;;;;;125.53;11.63;;;;;;;24.32;56.29;99928.78;7293601;19;130733;-44
2023/06/25 06:10:16;;;;;;;127.60;11.47;;;;;;;24.31;57.03;99927.16;7291924;19;130699;-37
2023/06/25 06:12:42;;;;;;;136.90;12.50;;;;;;;24.31;56.61;99924.53;7287300;19;130497;-41
2023/06/25 06:15:08;;;;;;;119.37;11.27;;;;;;;24.29;57.04;99924.69;7292867;19;130254;-42
2023/06/25 06:17:33;;;;;;;136.13;12.10;;;;;;;24.32;56.61;99929.63;7293424;19;129864;-40
2023/06/25 06:19:58;;;;;;;109.53;10.43;;;;;;;24.31;57.04;99927.97;7291033;19;129392;-41
2023/06/25 06:22:24;;;;;;;118.75;10.77;;;;;;;24.31;56.97;99927.16;7292721;19;129818;-43
2023/06/25 06:24:49;;;;;;;125.07;11.90;;;;;;;24.31;56.75;99930.59;7292934;19;130502;-38
2023/06/25 06:27:15;;;;;;;122.43;11.07;;;;;;;24.31;56.53;99924.53;7292894;19;130338;-40
2023/06/25 06:29:40;;;;;;;202.50;16.53;;;;;;;24.29;56.77;99924.69;7289569;19;130192;-40
2023/06/25 06:32:06;;;;;;;197.48;16.25;;;;;;;24.29;56.93;99923.84;7290549;19;131548;-40
2023/06/25 06:34:31;;;;;;;140.02;12.43;;;;;;;24.30;57.01;99922.84;7292591;19;130363;-41
2023/06/25 06:36:57;;;;;;;113.30;10.35;;;;;;;24.31;57.33;99927.16;7287394;19;130563;-42
2023/06/25 06:39:22;;;;;;;14.17;4.30;;;;;;;24.29;56.63;99923.84;7296849;19;130058;-42
2023/06/25 06:41:48;;;;;;;52.53;6.60;;;;;;;24.29;56.91;99927.31;7316478;19;129259;-43
2023/06/25 06:44:16;;;;;;;113.70;10.43;;;;;;;24.29;56.74;99924.69;7312662;19;129582;-39
2023/06/25 06:46:43;;;;;;;30.23;5.22;;;;;;;24.29;57.39;99913.34;7316471;19;129406;-43
2023/06/25 06:49:09;;;;;;;76.55;7.80;;;;;;;24.22;57.64;99905.22;7314699;19;129759;-39
2023/06/25 06:51:35;;;;;;;24.03;4.73;;;;;;;24.31;57.21;99924.53;7314244;19;129031;-40
2023/06/25 06:54:00;;;;;;;38.45;5.88;;;;;;;24.29;57.39;99922.06;7315287;19;129132;-42
2023/06/25 06:56:26;;;;;;;26.48;4.82;;;;;;;24.29;56.73;99919.44;7316036;19;128881;-41
2023/06/25 06:58:51;;;;;;;25.67;4.63;;;;;;;24.30;57.34;99921.06;7315880;19;129398;-41
2023/06/25 07:01:17;;;;;;;36.63;5.30;;;;;;;24.32;56.84;99927.00;7313105;19;129491;-43
2023/06/25 07:03:42;;;;;;;27.37;5.07;;;;;;;24.32;57.07;99926.16;7316186;19;129275;-38
2023/06/25 07:06:08;;;;;;;29.88;5.20;;;;;;;24.30;57.26;99917.59;7314272;19;130089;-39
2023/06/25 07:08:33;;;;;;;42.00;6.10;;;;;;;24.29;57.01;99916.81;7314635;19;128998;-42
2023/06/25 07:10:58;;;;;;;28.17;5.47;;;;;;;24.33;57.53;99904.16;7312642;19;129723;-38
2023/06/25 07:13:24;;;;;;;28.93;5.00;;;;;;;24.32;57.48;99913.88;7316265;19;131007;-39
2023/06/25 07:15:50;;;;;;;22.10;4.43;;;;;;;24.32;56.91;99905.16;7312260;19;129835;-42
2023/06/25 07:18:15;;;;;;;49.87;5.40;;;;;;;24.30;57.24;99915.81;7314495;19;128799;-40
2023/06/25 07:20:41;;;;;;;54.00;6.43;;;;;;;24.30;57.28;99909.72;7311382;19;129632;-42
2023/06/25 07:23:06;;;;;;;35.10;5.73;;;;;;;24.31;56.97;99914.81;7314064;19;129911;-41
2023/06/25 07:25:31;;;;;;;30.83;5.50;;;;;;;24.32;57.62;99913.88;7309266;19;129008;-37
2023/06/25 07:27:57;;;;;;;54.23;6.83;;;;;;;24.31;57.33;99912.19;7312792;19;129655;-42
2023/06/25 07:30:22;;;;;;;74.50;7.63;;;;;;;24.21;57.56;99890.41;7312050;19;129666;-43
2023/06/25 07:32:48;;;;;;;27.37;4.57;;;;;;;24.29;57.46;99914.16;7314006;19;129831;-40
2023/06/25 07:35:13;;;;;;;27.50;4.47;;;;;;;24.30;57.39;99910.56;7311014;19;129834;-43
2023/06/25 07:37:40;;;;;;;72.07;7.17;;;;;;;24.32;57.33;99905.97;7307668;19;129608;-44
2023/06/25 07:40:06;;;;;;;57.60;6.22;;;;;;;24.33;57.07;99904.16;7305232;19;131805;-44
2023/06/25 07:42:31;;;;;;;83.40;7.83;;;;;;;24.32;56.95;99892.84;7310321;19;129079;-42
2023/06/25 07:44:56;;;;;;;35.33;5.10;;;;;;;24.35;57.12;99900.44;7311104;19;129824;-40
2023/06/25 07:47:22;;;;;;;38.33;5.03;;;;;;;24.23;57.01;99888.47;7313659;19;130328;-38
2023/06/25 07:49:47;;;;;;;36.65;5.57;;;;;;;24.35;57.38;99904.84;7310342;19;130233;-42
2023/06/25 07:52:12;;;;;;;33.17;4.67;;;;;;;24.33;57.32;99902.38;7314258;19;130323;-37
2023/06/25 07:54:39;;;;;;;64.70;6.80;;;;;;;24.33;57.52;99899.75;7307957;19;130106;-42
2023/06/25 07:57:05;;;;;;;109.50;9.90;;;;;;;24.33;57.45;99898.91;7303768;19;130728;-38
2023/06/25 07:59:30;;;;;;;31.90;4.70;;;;;;;24.25;57.40;99890.94;7301668;19;130966;-39
2023/06/25 08:01:56;;;;;;;47.97;6.87;;;;;;;24.35;56.93;99900.44;7311170;19;129137;-39
2023/06/25 08:04:21;;;;;;;69.53;7.00;;;;;;;24.30;57.27;99899.22;7304267;19;129373;-44
2023/06/25 08:06:46;;;;;;;59.05;6.35;;;;;;;24.32;57.34;99908.63;7312595;19;129162;-41
2023/06/25 08:09:12;;;;;;;25.13;4.50;;;;;;;24.31;57.86;99903.50;7311585;19;130423;-42
2023/06/25 08:11:37;;;;;;;37.93;4.93;;;;;;;24.31;57.64;99899.06;7305806;19;130400;-42
2023/06/25 08:14:02;;;;;;;51.83;5.75;;;;;;;24.34;57.64;99901.41;7313085;19;129168;-44
2023/06/25 08:16:29;;;;;;;131.77;10.50;;;;;;;24.34;57.01;99903.22;7312118;19;129844;-41
2023/06/25 08:18:54;;;;;;;;;;;;;;;24.43;57.60;99908.38;7312367;19;130977;-43
2023/06/25 08:21:20;;;;;;;77.43;7.90;;;;;;;24.35;57.55;99905.69;7308155;19;129793;-44
2023/06/25 08:23:45;;;;;;;43.03;5.10;;;;;;;24.34;56.91;99906.66;7310517;19;129269;-39
2023/06/25 08:26:12;;;;;;;8.83;3.63;;;;;;;24.34;57.68;99904.03;7313819;19;128810;-42
2023/06/25 08:28:38;;;;;;;14.50;3.65;;;;;;;24.34;57.79;99900.56;7307230;19;129881;-45
2023/06/25 08:31:03;;;;;;;38.87;5.50;;;;;;;24.35;56.98;99902.22;7310345;19;129998;-41
2023/06/25 08:33:29;;;;;;;51.23;5.60;;;;;;;24.34;57.41;99892.69;7312656;19;129328;-39
2023/06/25 08:35:56;;;;;;;49.90;5.27;;;;;;;24.33;57.15;99897.13;7312987;19;129193;-40
2023/06/25 08:38:24;;;;;;;36.55;4.85;;;;;;;24.34;57.55;99896.16;7311727;19;130953;-41
2023/06/25 08:40:52;;;;;;;35.75;4.72;;;;;;;24.32;58.11;99898.09;7309803;19;130181;-44
2023/06/25 08:43:18;;;;;;;44.15;5.20;;;;;;;24.31;57.55;99891.19;7312904;19;128980;-42
2023/06/25 08:45:43;;;;;;;33.77;4.50;;;;;;;24.33;57.96;99897.13;7312896;19;128966;-42
2023/06/25 08:48:14;;;;;;;47.70;5.77;;;;;;;24.36;57.68;99902.06;7312814;19;129207;-43
2023/06/25 08:50:45;;;;;;;29.48;4.40;;;;;;;24.33;57.55;99893.66;7311082;19;129839;-44
2023/06/25 08:53:11;;;;;;;52.00;6.03;;;;;;;24.32;57.39;99895.47;7312097;19;129331;-40
2023/06/25 08:55:38;;;;;;;62.67;7.00;;;;;;;24.33;57.54;99899.75;7309815;19;129341;-42
2023/06/25 08:58:03;;;;;;;;;;;;;;;24.44;57.75;99896.88;7305103;19;129403;-42
2023/06/25 09:00:28;;;;;;;53.03;6.13;;;;;;;24.37;57.37;99892.38;7304443;19;130108;-43
2023/06/25 09:02:54;;;;;;;49.65;5.97;;;;;;;24.36;56.79;99888.91;7309850;19;128954;-43
2023/06/25 09:05:25;;;;;;;21.80;4.33;;;;;;;24.36;57.27;99894.19;7312021;19;129052;-41
2023/06/25 09:07:50;;;;;;;58.10;6.47;;;;;;;24.36;57.13;99888.13;7308723;19;131504;-44
2023/06/25 09:10:16;;;;;;;59.53;6.20;;;;;;;24.36;57.20;99891.56;7304927;19;129450;-43
2023/06/25 09:12:45;;;;;;;50.33;5.80;;;;;;;24.35;56.87;99882.03;7308064;19;130627;-41
2023/06/25 09:15:11;;;;;;;37.30;5.15;;;;;;;24.34;57.19;99888.28;7310295;19;129628;-41
2023/06/25 09:17:36;;;;;;;29.07;4.67;;;;;;;24.35;57.07;99887.28;7310639;19;129462;-42
2023/06/25 09:20:04;;;;;;;67.37;7.13;;;;;;;24.33;57.04;99889.22;7309095;19;130430;-41
2023/06/25 09:22:30;;;;;;;45.70;5.10;;;;;;;24.32;57.15;99882.34;7316931;19;129407;-38
2023/06/25 09:24:56;;;;;;;27.43;4.53;;;;;;;24.23;57.65;99862.19;7316792;19;131483;-41
2023/06/25 09:27:21;;;;;;;46.83;5.57;;;;;;;24.33;57.78;99873.47;7318006;19;129544;-42
2023/06/25 09:29:46;;;;;;;57.43;6.53;;;;;;;24.35;57.76;99876.78;7315546;19;129381;-44
2023/06/25 09:32:12;;;;;;;40.57;5.00;;;;;;;24.36;57.74;99867.91;7316780;19;129570;-42
2023/06/25 09:34:41;;;;;;;46.37;5.30;;;;;;;24.36;57.52;99869.72;7317680;19;129053;-42
2023/06/25 09:37:07;;;;;;;29.17;4.68;;;;;;;24.32;57.45;99865.72;7315292;19;129724;-44
2023/06/25 09:39:32;;;;;;;29.53;4.40;;;;;;;24.36;57.49;99867.91;7317830;19;129717;-45
2023/06/25 09:42:01;;;;;;;55.80;5.53;;;;;;;24.36;57.85;99865.28;7318622;19;129466;-44
2023/06/25 09:44:27;;;;;;;27.00;4.10;;;;;;;24.34;57.35;99864.63;7319224;19;129430;-46
2023/06/25 09:47:01;;;;;;;36.97;5.32;;;;;;;24.35;57.48;99866.25;7318144;19;130221;-43
2023/06/25 09:49:31;;;;;;;33.22;4.57;;;;;;;24.35;57.34;99866.25;7316937;19;129253;-38
2023/06/25 09:52:02;;;;;;;38.25;4.97;;;;;;;24.33;58.03;99860.31;7315332;19;129528;-42
2023/06/25 09:54:29;;;;;;;66.32;6.57;;;;;;;24.30;58.09;99858.00;7315061;19;129191;-41
2023/06/25 09:56:57;;;;;;;26.02;4.55;;;;;;;24.32;57.69;99853.44;7318622;19;129517;-43
2023/06/25 09:59:24;;;;;;;28.08;4.10;;;;;;;24.33;57.36;99852.44;7316284;19;129395;-40
2023/06/25 10:01:51;;;;;;;30.20;4.78;;;;;;;24.34;57.42;99854.09;7318356;19;129169;-38
2023/06/25 10:04:16;;;;;;;;;;;;;;;24.44;57.59;99846.13;7317544;19;128906;-40
2023/06/25 10:06:42;;;;;;;30.30;4.25;;;;;;;24.38;57.82;99844.09;7316423;19;129196;-39
2023/06/25 10:09:07;;;;;;;35.20;5.10;;;;;;;24.36;57.38;99841.63;7314281;19;132280;-43
2023/06/25 10:11:34;;;;;;;63.90;6.75;;;;;;;24.37;57.89;99840.66;7309344;19;129439;-44
2023/06/25 10:14:00;;;;;;;56.78;5.88;;;;;;;24.38;57.57;99844.94;7316863;19;128793;-44
2023/06/25 10:16:31;;;;;;;25.27;4.63;;;;;;;24.38;57.31;99850.19;7313445;19;129185;-43
2023/06/25 10:18:57;;;;;;;26.50;4.47;;;;;;;24.37;56.84;99843.28;7315986;19;130369;-44
2023/06/25 10:21:24;;;;;;;30.37;4.77;;;;;;;24.36;57.62;99844.25;7312610;19;129263;-40
2023/06/25 10:24:01;;;;;;;54.72;6.20;;;;;;;24.37;57.35;99838.03;7317206;19;129805;-44
2023/06/25 10:26:30;;;;;;;32.97;4.75;;;;;;;24.37;57.59;99832.78;7317178;19;130873;-43
2023/06/25 10:29:00;;;;;;;28.08;4.40;;;;;;;24.37;57.45;99838.03;7316511;19;129762;-44
2023/06/25 10:31:26;;;;;;;29.83;4.70;;;;;;;24.36;57.19;99833.72;7313417;19;129089;-40
2023/06/25 10:34:02;;;;;;;40.90;5.35;;;;;;;24.39;56.99;99830.81;7315947;19;128911;-45
2023/06/25 10:36:27;;;;;;;50.47;5.55;;;;;;;24.37;57.09;99832.78;7315423;19;130711;-43
2023/06/25 10:38:53;;;;;;;28.60;4.17;;;;;;;24.36;57.36;99831.09;7313592;19;129681;-44
2023/06/25 10:41:26;;;;;;;38.15;4.68;;;;;;;24.36;56.85;99831.09;7313700;19;129358;-42
2023/06/25 10:43:51;;;;;;;33.08;4.80;;;;;;;24.21;57.15;99811.59;7316290;19;129136;-42
2023/06/25 10:46:16;;;;;;;55.90;6.00;;;;;;;24.32;57.40;99831.56;7315754;19;129410;-42
2023/06/25 10:48:45;;;;;;;33.57;4.63;;;;;;;24.32;58.04;99827.16;7312826;19;129716;-43
2023/06/25 10:51:11;;;;;;;31.60;4.43;;;;;;;24.21;57.97;99800.28;7313828;19;128898;-38
2023/06/25 10:53:37;;;;;;;50.95;5.80;;;;;;;24.33;57.96;99817.44;7315844;19;129020;-44
2023/06/25 10:56:03;;;;;;;45.97;5.33;;;;;;;24.33;57.85;99820.06;7316537;19;129479;-45
2023/06/25 10:58:28;;;;;;;36.23;4.90;;;;;;;24.31;58.18;99814.97;7316175;19;130478;-45
2023/06/25 11:00:55;;;;;;;52.17;5.47;;;;;;;24.30;57.38;99813.34;7314133;19;130888;-41
2023/06/25 11:03:21;;;;;;;24.52;3.97;;;;;;;24.20;57.87;99794.19;7315654;19;128874;-41
2023/06/25 11:05:47;;;;;;;85.45;7.22;;;;;;;24.33;58.06;99814.81;7309482;19;129800;-40
2023/06/25 11:08:13;;;;;;;30.73;4.77;;;;;;;24.32;57.37;99808.75;7313264;19;129384;-40
2023/06/25 11:10:39;;;;;;;31.13;4.27;;;;;;;24.32;57.44;99814.00;7311239;19;129021;-41